sensor_id;sensor_type;location;lat;lon;timestamp;temperature;humidity
29345;DHT22;16339;48.748;2.222;2022-10-16T00:01:52;19.50;77.70
29345;DHT22;16339;48.748;2.222;2022-10-16T00:04:21;19.60;77.90
29345;DHT22;16339;48.748;2.222;2022-10-16T00:06:50;19.60;77.90
29345;DHT22;16339;48.748;2.222;2022-10-16T00:09:19;19.60;77.90
29345;DHT22;16339;48.748;2.222;2022-10-16T00:11:48;19.60;77.90
29345;DHT22;16339;48.748;2.222;2022-10-16T00:14:16;19.60;78.00
29345;DHT22;16339;48.748;2.222;2022-10-16T00:16:50;19.60;77.90
29345;DHT22;16339;48.748;2.222;2022-10-16T00:19:21;19.50;77.70
29345;DHT22;16339;48.748;2.222;2022-10-16T00:21:50;19.60;77.90
29345;DHT22;16339;48.748;2.222;2022-10-16T00:24:19;19.60;78.00
29345;DHT22;16339;48.748;2.222;2022-10-16T00:26:50;19.60;78.00
29345;DHT22;16339;48.748;2.222;2022-10-16T00:29:19;19.50;78.00
29345;DHT22;16339;48.748;2.222;2022-10-16T00:31:50;19.60;78.00
29345;DHT22;16339;48.748;2.222;2022-10-16T00:34:19;19.60;78.00
29345;DHT22;16339;48.748;2.222;2022-10-16T00:36:59;19.60;77.90
29345;DHT22;16339;48.748;2.222;2022-10-16T00:39:27;19.60;77.70
29345;DHT22;16339;48.748;2.222;2022-10-16T00:41:56;19.60;77.70
29345;DHT22;16339;48.748;2.222;2022-10-16T00:44:47;19.60;77.70
29345;DHT22;16339;48.748;2.222;2022-10-16T00:47:27;19.60;78.00
29345;DHT22;16339;48.748;2.222;2022-10-16T00:50:00;19.60;77.60
29345;DHT22;16339;48.748;2.222;2022-10-16T00:52:31;19.60;78.30
29345;DHT22;16339;48.748;2.222;2022-10-16T00:55:01;19.60;77.60
29345;DHT22;16339;48.748;2.222;2022-10-16T00:57:30;19.60;77.60
29345;DHT22;16339;48.748;2.222;2022-10-16T01:00:00;19.60;77.50
29345;DHT22;16339;48.748;2.222;2022-10-16T01:02:32;19.60;77.90
29345;DHT22;16339;48.748;2.222;2022-10-16T01:05:01;19.60;78.30
29345;DHT22;16339;48.748;2.222;2022-10-16T01:07:39;19.70;77.50
29345;DHT22;16339;48.748;2.222;2022-10-16T01:10:17;19.60;77.10
29345;DHT22;16339;48.748;2.222;2022-10-16T01:12:53;19.40;77.00
29345;DHT22;16339;48.748;2.222;2022-10-16T01:15:27;19.50;77.20
29345;DHT22;16339;48.748;2.222;2022-10-16T01:18:07;19.50;77.30
29345;DHT22;16339;48.748;2.222;2022-10-16T01:20:42;19.40;77.40
29345;DHT22;16339;48.748;2.222;2022-10-16T01:23:27;19.50;77.40
29345;DHT22;16339;48.748;2.222;2022-10-16T01:26:10;19.50;77.10
29345;DHT22;16339;48.748;2.222;2022-10-16T01:28:46;19.40;77.00
29345;DHT22;16339;48.748;2.222;2022-10-16T01:31:21;19.50;77.10
29345;DHT22;16339;48.748;2.222;2022-10-16T01:33:56;19.50;77.20
29345;DHT22;16339;48.748;2.222;2022-10-16T01:36:28;19.50;77.20
29345;DHT22;16339;48.748;2.222;2022-10-16T01:39:01;19.40;76.70
29345;DHT22;16339;48.748;2.222;2022-10-16T01:41:33;19.40;76.90
29345;DHT22;16339;48.748;2.222;2022-10-16T01:44:10;19.40;77.10
29345;DHT22;16339;48.748;2.222;2022-10-16T01:46:43;19.40;77.30
29345;DHT22;16339;48.748;2.222;2022-10-16T01:49:14;19.50;77.40
29345;DHT22;16339;48.748;2.222;2022-10-16T01:51:47;19.50;77.40
29345;DHT22;16339;48.748;2.222;2022-10-16T01:54:19;19.50;78.20
29345;DHT22;16339;48.748;2.222;2022-10-16T01:56:48;19.50;77.50
29345;DHT22;16339;48.748;2.222;2022-10-16T01:59:23;19.60;77.50
29345;DHT22;16339;48.748;2.222;2022-10-16T02:01:56;19.50;78.00
29345;DHT22;16339;48.748;2.222;2022-10-16T02:04:29;19.50;77.20
29345;DHT22;16339;48.748;2.222;2022-10-16T02:07:00;19.50;77.10
29345;DHT22;16339;48.748;2.222;2022-10-16T02:09:29;19.50;77.00
29345;DHT22;16339;48.748;2.222;2022-10-16T02:12:00;19.50;76.50
29345;DHT22;16339;48.748;2.222;2022-10-16T02:14:32;19.50;76.50
29345;DHT22;16339;48.748;2.222;2022-10-16T02:17:01;19.40;76.10
29345;DHT22;16339;48.748;2.222;2022-10-16T02:19:30;19.40;76.20
29345;DHT22;16339;48.748;2.222;2022-10-16T02:22:04;19.40;76.30
29345;DHT22;16339;48.748;2.222;2022-10-16T02:24:38;19.40;76.30
29345;DHT22;16339;48.748;2.222;2022-10-16T02:27:11;19.40;77.10
29345;DHT22;16339;48.748;2.222;2022-10-16T02:29:47;19.40;76.00
29345;DHT22;16339;48.748;2.222;2022-10-16T02:32:27;19.40;76.20
29345;DHT22;16339;48.748;2.222;2022-10-16T02:34:59;19.40;76.50
29345;DHT22;16339;48.748;2.222;2022-10-16T02:37:29;19.40;76.60
29345;DHT22;16339;48.748;2.222;2022-10-16T02:39:58;19.40;76.70
29345;DHT22;16339;48.748;2.222;2022-10-16T02:42:29;19.40;76.10
29345;DHT22;16339;48.748;2.222;2022-10-16T02:45:00;19.40;76.00
29345;DHT22;16339;48.748;2.222;2022-10-16T02:47:29;19.40;76.00
29345;DHT22;16339;48.748;2.222;2022-10-16T02:49:58;19.50;75.30
29345;DHT22;16339;48.748;2.222;2022-10-16T02:52:27;19.40;74.20
29345;DHT22;16339;48.748;2.222;2022-10-16T02:54:56;19.30;74.60
29345;DHT22;16339;48.748;2.222;2022-10-16T02:57:24;19.30;74.90
29345;DHT22;16339;48.748;2.222;2022-10-16T02:59:53;19.30;74.30
29345;DHT22;16339;48.748;2.222;2022-10-16T03:02:24;19.20;74.20
29345;DHT22;16339;48.748;2.222;2022-10-16T03:04:53;19.20;74.30
29345;DHT22;16339;48.748;2.222;2022-10-16T03:07:22;19.30;74.10
29345;DHT22;16339;48.748;2.222;2022-10-16T03:09:50;19.20;74.10
29345;DHT22;16339;48.748;2.222;2022-10-16T03:12:20;19.20;74.30
29345;DHT22;16339;48.748;2.222;2022-10-16T03:14:49;19.20;74.70
29345;DHT22;16339;48.748;2.222;2022-10-16T03:17:18;19.20;74.60
29345;DHT22;16339;48.748;2.222;2022-10-16T03:19:49;19.20;74.60
29345;DHT22;16339;48.748;2.222;2022-10-16T03:22:18;19.20;74.90
29345;DHT22;16339;48.748;2.222;2022-10-16T03:24:48;19.20;74.90
29345;DHT22;16339;48.748;2.222;2022-10-16T03:27:17;19.20;74.70
29345;DHT22;16339;48.748;2.222;2022-10-16T03:29:46;19.30;74.80
29345;DHT22;16339;48.748;2.222;2022-10-16T03:32:15;19.30;74.90
29345;DHT22;16339;48.748;2.222;2022-10-16T03:34:44;19.30;75.70
29345;DHT22;16339;48.748;2.222;2022-10-16T03:37:15;19.30;74.80
29345;DHT22;16339;48.748;2.222;2022-10-16T03:39:44;19.30;74.90
29345;DHT22;16339;48.748;2.222;2022-10-16T03:42:13;19.30;74.90
29345;DHT22;16339;48.748;2.222;2022-10-16T03:44:41;19.30;75.10
29345;DHT22;16339;48.748;2.222;2022-10-16T03:47:10;19.30;75.20
29345;DHT22;16339;48.748;2.222;2022-10-16T03:49:39;19.30;75.10
29345;DHT22;16339;48.748;2.222;2022-10-16T03:52:07;19.30;74.90
29345;DHT22;16339;48.748;2.222;2022-10-16T03:54:39;19.30;75.10
29345;DHT22;16339;48.748;2.222;2022-10-16T03:57:07;19.30;75.20
29345;DHT22;16339;48.748;2.222;2022-10-16T03:59:36;19.30;75.30
29345;DHT22;16339;48.748;2.222;2022-10-16T04:02:05;19.30;75.30
29345;DHT22;16339;48.748;2.222;2022-10-16T04:04:34;19.30;76.00
29345;DHT22;16339;48.748;2.222;2022-10-16T04:07:03;19.30;75.30
29345;DHT22;16339;48.748;2.222;2022-10-16T04:09:32;19.30;75.30
29345;DHT22;16339;48.748;2.222;2022-10-16T04:12:03;19.30;75.50
29345;DHT22;16339;48.748;2.222;2022-10-16T04:14:32;19.20;75.60
29345;DHT22;16339;48.748;2.222;2022-10-16T04:17:01;19.30;75.80
29345;DHT22;16339;48.748;2.222;2022-10-16T04:19:29;19.20;76.10
29345;DHT22;16339;48.748;2.222;2022-10-16T04:21:58;19.20;76.30
29345;DHT22;16339;48.748;2.222;2022-10-16T04:24:27;19.20;76.20
29345;DHT22;16339;48.748;2.222;2022-10-16T04:26:59;19.20;76.30
29345;DHT22;16339;48.748;2.222;2022-10-16T04:29:31;19.20;76.30
29345;DHT22;16339;48.748;2.222;2022-10-16T04:31:59;19.20;76.50
29345;DHT22;16339;48.748;2.222;2022-10-16T04:34:28;19.20;76.50
29345;DHT22;16339;48.748;2.222;2022-10-16T04:36:57;19.20;76.50
29345;DHT22;16339;48.748;2.222;2022-10-16T04:39:26;19.20;76.40
29345;DHT22;16339;48.748;2.222;2022-10-16T04:41:54;19.20;76.60
29345;DHT22;16339;48.748;2.222;2022-10-16T04:44:23;19.20;76.70
29345;DHT22;16339;48.748;2.222;2022-10-16T04:46:54;19.20;76.80
29345;DHT22;16339;48.748;2.222;2022-10-16T04:49:23;19.20;76.60
29345;DHT22;16339;48.748;2.222;2022-10-16T04:51:52;19.20;76.60
29345;DHT22;16339;48.748;2.222;2022-10-16T04:54:20;19.20;76.60
29345;DHT22;16339;48.748;2.222;2022-10-16T04:56:49;19.10;76.60
29345;DHT22;16339;48.748;2.222;2022-10-16T04:59:19;19.20;76.70
29345;DHT22;16339;48.748;2.222;2022-10-16T05:01:47;19.10;76.60
29345;DHT22;16339;48.748;2.222;2022-10-16T05:04:19;19.10;76.80
29345;DHT22;16339;48.748;2.222;2022-10-16T05:06:48;19.10;76.80
29345;DHT22;16339;48.748;2.222;2022-10-16T05:09:16;19.10;76.80
29345;DHT22;16339;48.748;2.222;2022-10-16T05:11:46;19.10;77.00
29345;DHT22;16339;48.748;2.222;2022-10-16T05:14:15;19.10;77.20
29345;DHT22;16339;48.748;2.222;2022-10-16T05:16:46;19.10;77.20
29345;DHT22;16339;48.748;2.222;2022-10-16T05:19:18;19.10;77.40
29345;DHT22;16339;48.748;2.222;2022-10-16T05:21:47;19.10;77.60
29345;DHT22;16339;48.748;2.222;2022-10-16T05:24:16;19.20;77.60
29345;DHT22;16339;48.748;2.222;2022-10-16T05:26:44;19.10;77.20
29345;DHT22;16339;48.748;2.222;2022-10-16T05:29:13;19.10;77.40
29345;DHT22;16339;48.748;2.222;2022-10-16T05:31:42;19.10;77.30
29345;DHT22;16339;48.748;2.222;2022-10-16T05:34:11;19.10;77.30
29345;DHT22;16339;48.748;2.222;2022-10-16T05:36:42;19.10;77.40
29345;DHT22;16339;48.748;2.222;2022-10-16T05:39:11;19.10;77.40
29345;DHT22;16339;48.748;2.222;2022-10-16T05:41:40;19.10;77.30
29345;DHT22;16339;48.748;2.222;2022-10-16T05:44:09;19.10;77.50
29345;DHT22;16339;48.748;2.222;2022-10-16T05:46:37;19.10;77.60
29345;DHT22;16339;48.748;2.222;2022-10-16T05:49:06;19.10;77.70
29345;DHT22;16339;48.748;2.222;2022-10-16T05:51:35;19.10;77.60
29345;DHT22;16339;48.748;2.222;2022-10-16T05:54:06;19.10;77.60
29345;DHT22;16339;48.748;2.222;2022-10-16T05:56:35;19.10;77.70
29345;DHT22;16339;48.748;2.222;2022-10-16T05:59:03;19.10;77.50
29345;DHT22;16339;48.748;2.222;2022-10-16T06:01:32;19.00;77.40
29345;DHT22;16339;48.748;2.222;2022-10-16T06:04:01;19.00;77.60
29345;DHT22;16339;48.748;2.222;2022-10-16T06:06:30;18.90;77.70
29345;DHT22;16339;48.748;2.222;2022-10-16T06:08:59;18.90;77.70
29345;DHT22;16339;48.748;2.222;2022-10-16T06:11:34;18.90;77.80
29345;DHT22;16339;48.748;2.222;2022-10-16T06:14:03;18.90;77.80
29345;DHT22;16339;48.748;2.222;2022-10-16T06:16:33;18.90;77.80
29345;DHT22;16339;48.748;2.222;2022-10-16T06:19:03;18.90;77.70
29345;DHT22;16339;48.748;2.222;2022-10-16T06:21:33;18.90;77.50
29345;DHT22;16339;48.748;2.222;2022-10-16T06:24:02;18.80;77.50
29345;DHT22;16339;48.748;2.222;2022-10-16T06:26:34;18.80;77.50
29345;DHT22;16339;48.748;2.222;2022-10-16T06:29:03;18.80;77.50
29345;DHT22;16339;48.748;2.222;2022-10-16T06:31:32;18.80;77.20
29345;DHT22;16339;48.748;2.222;2022-10-16T06:34:01;18.70;77.20
29345;DHT22;16339;48.748;2.222;2022-10-16T06:36:31;18.70;77.30
29345;DHT22;16339;48.748;2.222;2022-10-16T06:39:00;18.70;77.30
29345;DHT22;16339;48.748;2.222;2022-10-16T06:41:28;18.70;77.40
29345;DHT22;16339;48.748;2.222;2022-10-16T06:44:00;18.70;77.50
29345;DHT22;16339;48.748;2.222;2022-10-16T06:46:28;18.60;77.40
29345;DHT22;16339;48.748;2.222;2022-10-16T06:48:57;18.70;77.30
29345;DHT22;16339;48.748;2.222;2022-10-16T06:51:26;18.60;77.00
29345;DHT22;16339;48.748;2.222;2022-10-16T06:53:59;18.60;77.10
29345;DHT22;16339;48.748;2.222;2022-10-16T06:56:28;18.60;77.20
29345;DHT22;16339;48.748;2.222;2022-10-16T06:59:00;18.60;77.20
29345;DHT22;16339;48.748;2.222;2022-10-16T07:01:32;18.60;77.20
29345;DHT22;16339;48.748;2.222;2022-10-16T07:04:02;18.60;77.20
29345;DHT22;16339;48.748;2.222;2022-10-16T07:06:34;18.60;77.20
29345;DHT22;16339;48.748;2.222;2022-10-16T07:09:05;18.70;77.40
29345;DHT22;16339;48.748;2.222;2022-10-16T07:11:35;18.70;77.50
29345;DHT22;16339;48.748;2.222;2022-10-16T07:14:14;18.70;77.30
29345;DHT22;16339;48.748;2.222;2022-10-16T07:16:44;18.80;77.40
29345;DHT22;16339;48.748;2.222;2022-10-16T07:19:13;18.80;77.20
29345;DHT22;16339;48.748;2.222;2022-10-16T07:21:43;18.90;77.20
29345;DHT22;16339;48.748;2.222;2022-10-16T07:24:14;18.90;77.20
29345;DHT22;16339;48.748;2.222;2022-10-16T07:26:44;18.90;77.20
29345;DHT22;16339;48.748;2.222;2022-10-16T07:29:19;18.90;77.20
29345;DHT22;16339;48.748;2.222;2022-10-16T07:31:48;19.00;77.30
29345;DHT22;16339;48.748;2.222;2022-10-16T07:34:18;19.10;77.40
29345;DHT22;16339;48.748;2.222;2022-10-16T07:36:48;19.10;77.40
29345;DHT22;16339;48.748;2.222;2022-10-16T07:39:17;19.20;77.50
29345;DHT22;16339;48.748;2.222;2022-10-16T07:41:46;19.20;77.50
29345;DHT22;16339;48.748;2.222;2022-10-16T07:44:18;19.30;77.60
29345;DHT22;16339;48.748;2.222;2022-10-16T07:46:47;19.30;77.70
29345;DHT22;16339;48.748;2.222;2022-10-16T07:49:15;19.40;77.80
29345;DHT22;16339;48.748;2.222;2022-10-16T07:51:44;19.50;77.70
29345;DHT22;16339;48.748;2.222;2022-10-16T07:54:13;19.50;77.50
29345;DHT22;16339;48.748;2.222;2022-10-16T07:56:42;19.60;77.50
29345;DHT22;16339;48.748;2.222;2022-10-16T07:59:10;19.60;77.50
29345;DHT22;16339;48.748;2.222;2022-10-16T08:01:42;19.70;77.50
29345;DHT22;16339;48.748;2.222;2022-10-16T08:04:10;19.70;77.40
29345;DHT22;16339;48.748;2.222;2022-10-16T08:06:40;19.90;77.50
29345;DHT22;16339;48.748;2.222;2022-10-16T08:09:09;19.90;77.20
29345;DHT22;16339;48.748;2.222;2022-10-16T08:11:37;19.90;77.00
29345;DHT22;16339;48.748;2.222;2022-10-16T08:14:06;19.90;76.90
29345;DHT22;16339;48.748;2.222;2022-10-16T08:16:35;19.90;76.80
29345;DHT22;16339;48.748;2.222;2022-10-16T08:19:06;20.00;76.60
29345;DHT22;16339;48.748;2.222;2022-10-16T08:21:59;20.00;76.30
29345;DHT22;16339;48.748;2.222;2022-10-16T08:24:46;20.10;76.40
29345;DHT22;16339;48.748;2.222;2022-10-16T08:28:11;20.10;75.40
29345;DHT22;16339;48.748;2.222;2022-10-16T08:31:31;20.20;75.10
29345;DHT22;16339;48.748;2.222;2022-10-16T08:34:32;20.10;73.60
29345;DHT22;16339;48.748;2.222;2022-10-16T08:37:46;20.20;74.00
29345;DHT22;16339;48.748;2.222;2022-10-16T08:40:47;20.20;74.30
29345;DHT22;16339;48.748;2.222;2022-10-16T08:43:43;20.20;74.40
29345;DHT22;16339;48.748;2.222;2022-10-16T08:46:46;20.20;74.40
29345;DHT22;16339;48.748;2.222;2022-10-16T08:50:08;20.30;74.40
29345;DHT22;16339;48.748;2.222;2022-10-16T08:53:13;20.30;74.70
29345;DHT22;16339;48.748;2.222;2022-10-16T08:56:07;20.30;75.20
29345;DHT22;16339;48.748;2.222;2022-10-16T08:59:28;20.20;75.50
29345;DHT22;16339;48.748;2.222;2022-10-16T09:02:31;20.30;75.60
29345;DHT22;16339;48.748;2.222;2022-10-16T09:05:16;20.30;75.80
29345;DHT22;16339;48.748;2.222;2022-10-16T09:07:54;20.40;75.80
29345;DHT22;16339;48.748;2.222;2022-10-16T09:10:37;20.50;74.50
29345;DHT22;16339;48.748;2.222;2022-10-16T09:13:17;20.40;73.60
29345;DHT22;16339;48.748;2.222;2022-10-16T09:16:00;20.40;72.80
29345;DHT22;16339;48.748;2.222;2022-10-16T09:18:40;20.40;72.50
29345;DHT22;16339;48.748;2.222;2022-10-16T09:21:18;20.40;72.60
29345;DHT22;16339;48.748;2.222;2022-10-16T09:23:51;20.50;72.80
29345;DHT22;16339;48.748;2.222;2022-10-16T09:26:22;20.40;72.80
29345;DHT22;16339;48.748;2.222;2022-10-16T09:28:57;20.40;73.00
29345;DHT22;16339;48.748;2.222;2022-10-16T09:31:36;20.40;73.20
29345;DHT22;16339;48.748;2.222;2022-10-16T09:34:20;20.50;73.00
29345;DHT22;16339;48.748;2.222;2022-10-16T09:37:04;20.50;73.00
29345;DHT22;16339;48.748;2.222;2022-10-16T09:39:46;20.60;73.10
29345;DHT22;16339;48.748;2.222;2022-10-16T09:42:23;20.60;73.20
29345;DHT22;16339;48.748;2.222;2022-10-16T09:44:58;20.70;73.20
29345;DHT22;16339;48.748;2.222;2022-10-16T09:47:29;20.80;72.90
29345;DHT22;16339;48.748;2.222;2022-10-16T09:50:05;20.90;72.80
29345;DHT22;16339;48.748;2.222;2022-10-16T09:53:03;20.90;72.60
29345;DHT22;16339;48.748;2.222;2022-10-16T09:55:47;20.90;72.10
29345;DHT22;16339;48.748;2.222;2022-10-16T09:58:27;21.00;72.20
29345;DHT22;16339;48.748;2.222;2022-10-16T10:01:01;21.00;72.10
29345;DHT22;16339;48.748;2.222;2022-10-16T10:03:38;21.00;72.10
29345;DHT22;16339;48.748;2.222;2022-10-16T10:06:24;21.00;72.40
29345;DHT22;16339;48.748;2.222;2022-10-16T10:09:04;21.00;72.10
29345;DHT22;16339;48.748;2.222;2022-10-16T10:11:46;21.00;71.60
29345;DHT22;16339;48.748;2.222;2022-10-16T10:14:23;21.00;71.60
29345;DHT22;16339;48.748;2.222;2022-10-16T10:20:18;21.10;71.60
29345;DHT22;16339;48.748;2.222;2022-10-16T10:23:25;21.20;71.60
29345;DHT22;16339;48.748;2.222;2022-10-16T10:26:13;21.20;69.50
29345;DHT22;16339;48.748;2.222;2022-10-16T10:29:08;21.20;69.30
29345;DHT22;16339;48.748;2.222;2022-10-16T10:32:24;21.20;69.00
29345;DHT22;16339;48.748;2.222;2022-10-16T10:35:33;21.30;69.40
29345;DHT22;16339;48.748;2.222;2022-10-16T10:38:54;21.30;69.50
29345;DHT22;16339;48.748;2.222;2022-10-16T10:55:33;21.40;70.70
29345;DHT22;16339;48.748;2.222;2022-10-16T10:59:04;21.40;70.60
29345;DHT22;16339;48.748;2.222;2022-10-16T11:02:38;21.40;71.10
29345;DHT22;16339;48.748;2.222;2022-10-16T11:06:17;21.40;70.50
29345;DHT22;16339;48.748;2.222;2022-10-16T11:09:47;21.30;70.60
29345;DHT22;16339;48.748;2.222;2022-10-16T11:30:02;21.50;70.60
29345;DHT22;16339;48.748;2.222;2022-10-16T11:35:39;21.40;70.70
29345;DHT22;16339;48.748;2.222;2022-10-16T11:38:14;21.50;70.80
29345;DHT22;16339;48.748;2.222;2022-10-16T11:40:47;21.60;71.40
29345;DHT22;16339;48.748;2.222;2022-10-16T11:43:22;21.70;71.20
29345;DHT22;16339;48.748;2.222;2022-10-16T11:45:57;21.70;70.70
29345;DHT22;16339;48.748;2.222;2022-10-16T11:48:31;21.70;70.70
29345;DHT22;16339;48.748;2.222;2022-10-16T11:51:08;21.80;70.80
29345;DHT22;16339;48.748;2.222;2022-10-16T11:53:45;21.70;70.20
29345;DHT22;16339;48.748;2.222;2022-10-16T11:56:17;21.70;70.50
29345;DHT22;16339;48.748;2.222;2022-10-16T11:58:54;21.70;70.80
29345;DHT22;16339;48.748;2.222;2022-10-16T12:01:32;21.70;71.30
29345;DHT22;16339;48.748;2.222;2022-10-16T12:04:16;21.80;71.00
29345;DHT22;16339;48.748;2.222;2022-10-16T12:06:51;21.80;71.30
29345;DHT22;16339;48.748;2.222;2022-10-16T12:09:24;21.80;71.10
29345;DHT22;16339;48.748;2.222;2022-10-16T12:11:54;21.80;71.00
29345;DHT22;16339;48.748;2.222;2022-10-16T12:14:38;21.80;71.40
29345;DHT22;16339;48.748;2.222;2022-10-16T12:17:27;21.70;71.70
29345;DHT22;16339;48.748;2.222;2022-10-16T12:20:20;21.80;71.70
29345;DHT22;16339;48.748;2.222;2022-10-16T12:22:50;21.80;71.70
29345;DHT22;16339;48.748;2.222;2022-10-16T12:25:24;21.80;71.60
29345;DHT22;16339;48.748;2.222;2022-10-16T12:28:02;21.90;71.60
29345;DHT22;16339;48.748;2.222;2022-10-16T12:30:33;22.00;71.60
29345;DHT22;16339;48.748;2.222;2022-10-16T12:33:15;22.10;71.30
29345;DHT22;16339;48.748;2.222;2022-10-16T12:35:48;22.10;71.30
29345;DHT22;16339;48.748;2.222;2022-10-16T12:38:19;22.20;71.10
29345;DHT22;16339;48.748;2.222;2022-10-16T12:40:56;22.30;71.10
29345;DHT22;16339;48.748;2.222;2022-10-16T12:43:35;22.30;71.00
29345;DHT22;16339;48.748;2.222;2022-10-16T12:46:20;22.40;70.80
29345;DHT22;16339;48.748;2.222;2022-10-16T12:49:23;22.40;70.60
29345;DHT22;16339;48.748;2.222;2022-10-16T12:51:58;22.40;70.80
29345;DHT22;16339;48.748;2.222;2022-10-16T12:54:29;22.40;71.30
29345;DHT22;16339;48.748;2.222;2022-10-16T12:57:17;22.50;72.10
29345;DHT22;16339;48.748;2.222;2022-10-16T12:59:56;22.60;72.60
29345;DHT22;16339;48.748;2.222;2022-10-16T13:02:50;22.70;72.10
29345;DHT22;16339;48.748;2.222;2022-10-16T13:05:46;22.80;71.00
29345;DHT22;16339;48.748;2.222;2022-10-16T13:08:29;22.90;71.00
29345;DHT22;16339;48.748;2.222;2022-10-16T13:11:05;23.00;70.80
29345;DHT22;16339;48.748;2.222;2022-10-16T13:13:57;23.20;70.70
29345;DHT22;16339;48.748;2.222;2022-10-16T13:16:37;23.20;70.10
29345;DHT22;16339;48.748;2.222;2022-10-16T13:19:18;23.30;68.80
29345;DHT22;16339;48.748;2.222;2022-10-16T13:21:58;23.40;68.80
29345;DHT22;16339;48.748;2.222;2022-10-16T13:24:48;23.50;68.70
29345;DHT22;16339;48.748;2.222;2022-10-16T13:27:35;23.30;68.40
29345;DHT22;16339;48.748;2.222;2022-10-16T13:30:12;23.20;68.70
29345;DHT22;16339;48.748;2.222;2022-10-16T13:32:45;23.10;69.00
29345;DHT22;16339;48.748;2.222;2022-10-16T13:35:20;23.00;69.50
29345;DHT22;16339;48.748;2.222;2022-10-16T13:38:04;22.80;70.00
29345;DHT22;16339;48.748;2.222;2022-10-16T13:40:33;22.70;70.50
29345;DHT22;16339;48.748;2.222;2022-10-16T13:43:02;22.70;70.70
29345;DHT22;16339;48.748;2.222;2022-10-16T13:45:31;22.60;71.20
29345;DHT22;16339;48.748;2.222;2022-10-16T13:48:04;22.60;71.50
29345;DHT22;16339;48.748;2.222;2022-10-16T13:50:33;22.60;71.40
29345;DHT22;16339;48.748;2.222;2022-10-16T13:53:13;22.50;71.10
29345;DHT22;16339;48.748;2.222;2022-10-16T13:55:42;22.40;71.40
29345;DHT22;16339;48.748;2.222;2022-10-16T13:58:13;22.50;71.60
29345;DHT22;16339;48.748;2.222;2022-10-16T14:00:52;22.50;71.80
29345;DHT22;16339;48.748;2.222;2022-10-16T14:03:21;22.70;72.00
29345;DHT22;16339;48.748;2.222;2022-10-16T14:05:52;22.70;71.70
29345;DHT22;16339;48.748;2.222;2022-10-16T14:08:25;22.70;72.00
29345;DHT22;16339;48.748;2.222;2022-10-16T14:10:56;22.70;72.00
29345;DHT22;16339;48.748;2.222;2022-10-16T14:13:30;22.70;72.00
29345;DHT22;16339;48.748;2.222;2022-10-16T14:16:02;22.70;72.20
29345;DHT22;16339;48.748;2.222;2022-10-16T14:18:31;22.80;72.10
29345;DHT22;16339;48.748;2.222;2022-10-16T14:21:04;22.80;72.20
29345;DHT22;16339;48.748;2.222;2022-10-16T14:23:37;22.90;72.30
29345;DHT22;16339;48.748;2.222;2022-10-16T14:26:12;23.00;72.00
29345;DHT22;16339;48.748;2.222;2022-10-16T14:28:43;23.00;71.90
29345;DHT22;16339;48.748;2.222;2022-10-16T14:31:28;23.00;72.00
29345;DHT22;16339;48.748;2.222;2022-10-16T14:33:57;22.90;72.00
29345;DHT22;16339;48.748;2.222;2022-10-16T14:36:27;23.00;72.10
29345;DHT22;16339;48.748;2.222;2022-10-16T14:39:02;23.00;72.20
29345;DHT22;16339;48.748;2.222;2022-10-16T14:41:33;22.90;72.20
29345;DHT22;16339;48.748;2.222;2022-10-16T14:44:10;23.00;72.00
29345;DHT22;16339;48.748;2.222;2022-10-16T14:46:41;22.90;72.00
29345;DHT22;16339;48.748;2.222;2022-10-16T14:49:16;22.90;72.10
29345;DHT22;16339;48.748;2.222;2022-10-16T14:51:46;22.80;72.30
29345;DHT22;16339;48.748;2.222;2022-10-16T14:54:19;22.80;72.50
29345;DHT22;16339;48.748;2.222;2022-10-16T14:56:50;22.70;72.80
29345;DHT22;16339;48.748;2.222;2022-10-16T14:59:23;22.80;73.20
29345;DHT22;16339;48.748;2.222;2022-10-16T15:01:54;22.70;73.30
29345;DHT22;16339;48.748;2.222;2022-10-16T15:04:23;22.80;73.60
29345;DHT22;16339;48.748;2.222;2022-10-16T15:06:52;22.80;73.70
29345;DHT22;16339;48.748;2.222;2022-10-16T15:09:23;22.80;73.70
29345;DHT22;16339;48.748;2.222;2022-10-16T15:11:52;22.90;73.90
29345;DHT22;16339;48.748;2.222;2022-10-16T15:14:21;23.00;74.00
29345;DHT22;16339;48.748;2.222;2022-10-16T15:16:50;23.10;73.50
29345;DHT22;16339;48.748;2.222;2022-10-16T15:19:19;23.10;72.80
29345;DHT22;16339;48.748;2.222;2022-10-16T15:21:48;23.20;72.70
29345;DHT22;16339;48.748;2.222;2022-10-16T15:24:18;23.10;72.70
29345;DHT22;16339;48.748;2.222;2022-10-16T15:26:50;23.10;72.70
29345;DHT22;16339;48.748;2.222;2022-10-16T15:29:22;23.00;72.70
29345;DHT22;16339;48.748;2.222;2022-10-16T15:31:50;23.00;72.90
29345;DHT22;16339;48.748;2.222;2022-10-16T15:34:22;22.90;73.10
29345;DHT22;16339;48.748;2.222;2022-10-16T15:36:51;22.90;73.40
29345;DHT22;16339;48.748;2.222;2022-10-16T15:39:20;22.90;73.60
29345;DHT22;16339;48.748;2.222;2022-10-16T15:41:52;22.80;73.90
29345;DHT22;16339;48.748;2.222;2022-10-16T15:44:20;22.80;74.00
29345;DHT22;16339;48.748;2.222;2022-10-16T15:46:54;22.80;74.20
29345;DHT22;16339;48.748;2.222;2022-10-16T15:49:24;22.80;74.10
29345;DHT22;16339;48.748;2.222;2022-10-16T15:51:52;22.80;74.30
29345;DHT22;16339;48.748;2.222;2022-10-16T15:54:21;22.80;74.40
29345;DHT22;16339;48.748;2.222;2022-10-16T15:56:52;22.70;74.60
29345;DHT22;16339;48.748;2.222;2022-10-16T15:59:21;22.70;74.70
29345;DHT22;16339;48.748;2.222;2022-10-16T16:01:49;22.80;74.80
29345;DHT22;16339;48.748;2.222;2022-10-16T16:04:18;22.70;74.50
29345;DHT22;16339;48.748;2.222;2022-10-16T16:06:47;22.70;74.70
29345;DHT22;16339;48.748;2.222;2022-10-16T16:09:16;22.60;74.90
29345;DHT22;16339;48.748;2.222;2022-10-16T16:11:44;22.60;75.10
29345;DHT22;16339;48.748;2.222;2022-10-16T16:14:16;22.60;75.30
29345;DHT22;16339;48.748;2.222;2022-10-16T16:16:44;22.50;75.50
29345;DHT22;16339;48.748;2.222;2022-10-16T16:19:13;22.50;75.60
29345;DHT22;16339;48.748;2.222;2022-10-16T16:21:46;22.50;75.80
29345;DHT22;16339;48.748;2.222;2022-10-16T16:24:15;22.50;76.00
29345;DHT22;16339;48.748;2.222;2022-10-16T16:26:44;22.40;76.40
29345;DHT22;16339;48.748;2.222;2022-10-16T16:29:16;22.40;76.70
29345;DHT22;16339;48.748;2.222;2022-10-16T16:31:44;22.30;77.10
29345;DHT22;16339;48.748;2.222;2022-10-16T16:34:13;22.20;77.60
29345;DHT22;16339;48.748;2.222;2022-10-16T16:36:42;22.10;78.50
29345;DHT22;16339;48.748;2.222;2022-10-16T16:39:11;22.00;78.70
29345;DHT22;16339;48.748;2.222;2022-10-16T16:41:39;21.90;78.90
29345;DHT22;16339;48.748;2.222;2022-10-16T16:44:09;21.90;79.40
29345;DHT22;16339;48.748;2.222;2022-10-16T16:46:42;21.80;79.70
29345;DHT22;16339;48.748;2.222;2022-10-16T16:49:12;21.70;79.90
29345;DHT22;16339;48.748;2.222;2022-10-16T16:51:41;21.70;80.00
29345;DHT22;16339;48.748;2.222;2022-10-16T16:54:10;21.60;80.40
29345;DHT22;16339;48.748;2.222;2022-10-16T16:56:40;21.60;80.40